sensor_id;sensor_type;location;lat;lon;timestamp;P1;durP1;ratioP1;P2;durP2;ratioP2
70725;SDS011;58304;53.104;6.022;2023-04-25T00:02:20;18.77;;;2.58;;
70725;SDS011;58304;53.104;6.022;2023-04-25T00:04:45;13.52;;;3.08;;
70725;SDS011;58304;53.104;6.022;2023-04-25T00:07:14;13.13;;;2.90;;
70725;SDS011;58304;53.104;6.022;2023-04-25T00:12:05;13.75;;;2.78;;
70725;SDS011;58304;53.104;6.022;2023-04-25T00:14:31;15.13;;;2.65;;
70725;SDS011;58304;53.104;6.022;2023-04-25T00:16:59;17.27;;;3.22;;
70725;SDS011;58304;53.104;6.022;2023-04-25T00:21:51;14.77;;;2.90;;
70725;SDS011;58304;53.104;6.022;2023-04-25T00:24:18;13.93;;;2.65;;
70725;SDS011;58304;53.104;6.022;2023-04-25T00:26:44;12.60;;;2.28;;
70725;SDS011;58304;53.104;6.022;2023-04-25T00:34:01;11.70;;;2.25;;
70725;SDS011;58304;53.104;6.022;2023-04-25T00:36:26;17.10;;;2.83;;
70725;SDS011;58304;53.104;6.022;2023-04-25T00:41:18;12.13;;;2.10;;
70725;SDS011;58304;53.104;6.022;2023-04-25T00:43:45;10.30;;;2.00;;
70725;SDS011;58304;53.104;6.022;2023-04-25T00:46:12;14.82;;;2.63;;
70725;SDS011;58304;53.104;6.022;2023-04-25T00:53:29;11.65;;;2.30;;
70725;SDS011;58304;53.104;6.022;2023-04-25T00:55:57;13.25;;;2.38;;
70725;SDS011;58304;53.104;6.022;2023-04-25T00:58:23;12.80;;;2.38;;
70725;SDS011;58304;53.104;6.022;2023-04-25T01:03:16;10.43;;;1.73;;
70725;SDS011;58304;53.104;6.022;2023-04-25T01:05:44;13.70;;;2.35;;
70725;SDS011;58304;53.104;6.022;2023-04-25T01:10:36;9.25;;;2.00;;
70725;SDS011;58304;53.104;6.022;2023-04-25T01:15:27;14.40;;;2.53;;
70725;SDS011;58304;53.104;6.022;2023-04-25T01:17:53;14.23;;;2.65;;
70725;SDS011;58304;53.104;6.022;2023-04-25T01:20:23;14.95;;;2.67;;
70725;SDS011;58304;53.104;6.022;2023-04-25T01:22:50;11.98;;;2.53;;
70725;SDS011;58304;53.104;6.022;2023-04-25T01:25:17;11.77;;;2.10;;
70725;SDS011;58304;53.104;6.022;2023-04-25T01:27:43;16.60;;;2.58;;
70725;SDS011;58304;53.104;6.022;2023-04-25T01:32:35;16.42;;;2.47;;
70725;SDS011;58304;53.104;6.022;2023-04-25T01:35:04;12.40;;;2.72;;
70725;SDS011;58304;53.104;6.022;2023-04-25T01:37:38;11.00;;;2.03;;
70725;SDS011;58304;53.104;6.022;2023-04-25T01:40:04;11.75;;;2.30;;
70725;SDS011;58304;53.104;6.022;2023-04-25T01:42:31;11.00;;;1.88;;
70725;SDS011;58304;53.104;6.022;2023-04-25T01:44:58;8.77;;;1.60;;
70725;SDS011;58304;53.104;6.022;2023-04-25T01:47:24;12.90;;;1.90;;
70725;SDS011;58304;53.104;6.022;2023-04-25T01:49:50;6.43;;;1.40;;
70725;SDS011;58304;53.104;6.022;2023-04-25T01:54:41;9.48;;;1.63;;
70725;SDS011;58304;53.104;6.022;2023-04-25T01:57:10;7.45;;;1.27;;
70725;SDS011;58304;53.104;6.022;2023-04-25T01:59:36;7.78;;;1.45;;
70725;SDS011;58304;53.104;6.022;2023-04-25T02:04:30;8.02;;;1.30;;
70725;SDS011;58304;53.104;6.022;2023-04-25T02:11:47;8.27;;;1.30;;
70725;SDS011;58304;53.104;6.022;2023-04-25T02:14:13;8.55;;;1.50;;
70725;SDS011;58304;53.104;6.022;2023-04-25T02:16:38;9.48;;;1.48;;
70725;SDS011;58304;53.104;6.022;2023-04-25T02:19:04;8.52;;;1.40;;
70725;SDS011;58304;53.104;6.022;2023-04-25T02:23:56;6.57;;;1.67;;
70725;SDS011;58304;53.104;6.022;2023-04-25T02:26:22;9.38;;;1.63;;
70725;SDS011;58304;53.104;6.022;2023-04-25T02:28:48;10.68;;;1.63;;
70725;SDS011;58304;53.104;6.022;2023-04-25T02:31:15;12.88;;;1.73;;
70725;SDS011;58304;53.104;6.022;2023-04-25T02:36:07;11.45;;;1.63;;
70725;SDS011;58304;53.104;6.022;2023-04-25T02:38:32;12.52;;;2.10;;
70725;SDS011;58304;53.104;6.022;2023-04-25T02:40:59;9.07;;;1.60;;
70725;SDS011;58304;53.104;6.022;2023-04-25T02:43:25;7.15;;;1.60;;
70725;SDS011;58304;53.104;6.022;2023-04-25T02:55:32;11.93;;;1.20;;
70725;SDS011;58304;53.104;6.022;2023-04-25T02:57:58;6.72;;;1.40;;
70725;SDS011;58304;53.104;6.022;2023-04-25T03:02:50;4.15;;;1.00;;
70725;SDS011;58304;53.104;6.022;2023-04-25T03:05:16;4.30;;;0.90;;
70725;SDS011;58304;53.104;6.022;2023-04-25T03:07:42;4.50;;;0.98;;
70725;SDS011;58304;53.104;6.022;2023-04-25T03:10:09;4.57;;;1.02;;
70725;SDS011;58304;53.104;6.022;2023-04-25T03:12:35;7.82;;;1.05;;
70725;SDS011;58304;53.104;6.022;2023-04-25T03:15:01;6.63;;;1.27;;
70725;SDS011;58304;53.104;6.022;2023-04-25T03:19:53;4.47;;;1.13;;
70725;SDS011;58304;53.104;6.022;2023-04-25T03:22:20;5.82;;;1.20;;
70725;SDS011;58304;53.104;6.022;2023-04-25T03:24:45;8.57;;;1.13;;
70725;SDS011;58304;53.104;6.022;2023-04-25T03:29:37;4.32;;;1.00;;
70725;SDS011;58304;53.104;6.022;2023-04-25T03:32:03;7.80;;;1.10;;
70725;SDS011;58304;53.104;6.022;2023-04-25T03:39:20;6.20;;;1.02;;
70725;SDS011;58304;53.104;6.022;2023-04-25T03:41:45;4.78;;;1.13;;
70725;SDS011;58304;53.104;6.022;2023-04-25T03:44:11;7.72;;;1.50;;
70725;SDS011;58304;53.104;6.022;2023-04-25T03:46:37;12.98;;;1.55;;
70725;SDS011;58304;53.104;6.022;2023-04-25T03:51:28;5.97;;;1.55;;
70725;SDS011;58304;53.104;6.022;2023-04-25T03:53:55;9.75;;;1.70;;
70725;SDS011;58304;53.104;6.022;2023-04-25T03:56:20;13.88;;;1.48;;
70725;SDS011;58304;53.104;6.022;2023-04-25T03:58:46;8.07;;;1.50;;
70725;SDS011;58304;53.104;6.022;2023-04-25T04:01:11;12.88;;;1.80;;
70725;SDS011;58304;53.104;6.022;2023-04-25T04:06:03;10.48;;;1.70;;
70725;SDS011;58304;53.104;6.022;2023-04-25T04:08:30;8.40;;;1.50;;
70725;SDS011;58304;53.104;6.022;2023-04-25T04:10:57;9.10;;;1.60;;
70725;SDS011;58304;53.104;6.022;2023-04-25T04:13:25;7.90;;;1.30;;
70725;SDS011;58304;53.104;6.022;2023-04-25T04:15:51;6.43;;;1.33;;
70725;SDS011;58304;53.104;6.022;2023-04-25T04:18:16;11.88;;;1.80;;
70725;SDS011;58304;53.104;6.022;2023-04-25T04:25:33;8.30;;;1.17;;
70725;SDS011;58304;53.104;6.022;2023-04-25T04:27:59;10.15;;;1.27;;
70725;SDS011;58304;53.104;6.022;2023-04-25T04:30:26;9.30;;;1.77;;
70725;SDS011;58304;53.104;6.022;2023-04-25T04:32:54;13.32;;;1.30;;
70725;SDS011;58304;53.104;6.022;2023-04-25T04:35:21;7.30;;;1.17;;
70725;SDS011;58304;53.104;6.022;2023-04-25T04:37:47;6.95;;;1.70;;
70725;SDS011;58304;53.104;6.022;2023-04-25T04:40:13;7.13;;;1.30;;
70725;SDS011;58304;53.104;6.022;2023-04-25T04:42:42;9.35;;;1.65;;
70725;SDS011;58304;53.104;6.022;2023-04-25T04:45:10;9.82;;;1.55;;
70725;SDS011;58304;53.104;6.022;2023-04-25T04:47:37;5.60;;;1.23;;
70725;SDS011;58304;53.104;6.022;2023-04-25T04:50:04;9.07;;;1.42;;
70725;SDS011;58304;53.104;6.022;2023-04-25T04:52:33;11.05;;;1.30;;
70725;SDS011;58304;53.104;6.022;2023-04-25T04:54:59;6.22;;;1.23;;
70725;SDS011;58304;53.104;6.022;2023-04-25T04:57:25;5.93;;;1.30;;
70725;SDS011;58304;53.104;6.022;2023-04-25T04:59:52;4.22;;;1.00;;
70725;SDS011;58304;53.104;6.022;2023-04-25T05:02:18;3.20;;;1.00;;
70725;SDS011;58304;53.104;6.022;2023-04-25T05:04:44;8.60;;;1.27;;
70725;SDS011;58304;53.104;6.022;2023-04-25T05:07:10;6.22;;;0.98;;
70725;SDS011;58304;53.104;6.022;2023-04-25T05:09:35;12.98;;;1.90;;
70725;SDS011;58304;53.104;6.022;2023-04-25T05:14:27;7.72;;;1.20;;
70725;SDS011;58304;53.104;6.022;2023-04-25T05:16:52;15.82;;;1.73;;
70725;SDS011;58304;53.104;6.022;2023-04-25T05:19:18;7.93;;;1.30;;
70725;SDS011;58304;53.104;6.022;2023-04-25T05:24:09;14.88;;;1.30;;
70725;SDS011;58304;53.104;6.022;2023-04-25T05:31:25;3.22;;;1.00;;
70725;SDS011;58304;53.104;6.022;2023-04-25T05:36:18;7.40;;;1.20;;
70725;SDS011;58304;53.104;6.022;2023-04-25T05:38:44;9.07;;;1.58;;
70725;SDS011;58304;53.104;6.022;2023-04-25T05:41:10;10.48;;;1.25;;
70725;SDS011;58304;53.104;6.022;2023-04-25T05:43:35;7.05;;;2.10;;
70725;SDS011;58304;53.104;6.022;2023-04-25T05:46:01;8.57;;;1.40;;
70725;SDS011;58304;53.104;6.022;2023-04-25T05:48:27;11.88;;;1.58;;
70725;SDS011;58304;53.104;6.022;2023-04-25T05:50:52;4.13;;;1.30;;
70725;SDS011;58304;53.104;6.022;2023-04-25T05:53:19;5.28;;;1.50;;
70725;SDS011;58304;53.104;6.022;2023-04-25T05:55:45;8.10;;;1.33;;
70725;SDS011;58304;53.104;6.022;2023-04-25T05:58:11;9.10;;;1.52;;
70725;SDS011;58304;53.104;6.022;2023-04-25T06:05:28;6.68;;;1.00;;
70725;SDS011;58304;53.104;6.022;2023-04-25T06:10:20;6.43;;;1.10;;
70725;SDS011;58304;53.104;6.022;2023-04-25T06:15:12;8.98;;;1.45;;
70725;SDS011;58304;53.104;6.022;2023-04-25T06:17:37;5.40;;;0.98;;
70725;SDS011;58304;53.104;6.022;2023-04-25T06:20:03;4.32;;;0.80;;
70725;SDS011;58304;53.104;6.022;2023-04-25T06:24:54;8.25;;;1.10;;
70725;SDS011;58304;53.104;6.022;2023-04-25T06:27:23;5.07;;;1.00;;
70725;SDS011;58304;53.104;6.022;2023-04-25T06:34:40;4.57;;;0.90;;
70725;SDS011;58304;53.104;6.022;2023-04-25T06:37:06;7.03;;;1.00;;
70725;SDS011;58304;53.104;6.022;2023-04-25T06:39:31;4.50;;;0.80;;
70725;SDS011;58304;53.104;6.022;2023-04-25T06:41:57;5.45;;;0.90;;
70725;SDS011;58304;53.104;6.022;2023-04-25T06:44:22;5.72;;;1.20;;
70725;SDS011;58304;53.104;6.022;2023-04-25T06:46:49;3.88;;;0.90;;
70725;SDS011;58304;53.104;6.022;2023-04-25T06:51:40;3.83;;;1.00;;
70725;SDS011;58304;53.104;6.022;2023-04-25T06:56:31;5.95;;;0.90;;
70725;SDS011;58304;53.104;6.022;2023-04-25T06:58:57;8.05;;;1.10;;
70725;SDS011;58304;53.104;6.022;2023-04-25T07:03:48;8.27;;;1.20;;
70725;SDS011;58304;53.104;6.022;2023-04-25T07:13:31;4.80;;;0.85;;
70725;SDS011;58304;53.104;6.022;2023-04-25T07:18:22;6.38;;;1.10;;
70725;SDS011;58304;53.104;6.022;2023-04-25T07:23:13;9.90;;;1.20;;
70725;SDS011;58304;53.104;6.022;2023-04-25T07:30:30;5.97;;;1.10;;
70725;SDS011;58304;53.104;6.022;2023-04-25T07:35:21;11.50;;;1.17;;
70725;SDS011;58304;53.104;6.022;2023-04-25T07:40:13;10.02;;;0.95;;
70725;SDS011;58304;53.104;6.022;2023-04-25T07:42:40;4.60;;;1.00;;
70725;SDS011;58304;53.104;6.022;2023-04-25T07:45:06;5.47;;;0.80;;
70725;SDS011;58304;53.104;6.022;2023-04-25T07:47:32;10.70;;;1.27;;
70725;SDS011;58304;53.104;6.022;2023-04-25T07:49:57;7.00;;;0.80;;
70725;SDS011;58304;53.104;6.022;2023-04-25T07:52:23;6.80;;;1.10;;
70725;SDS011;58304;53.104;6.022;2023-04-25T07:54:49;5.65;;;1.10;;
70725;SDS011;58304;53.104;6.022;2023-04-25T07:57:15;6.63;;;1.02;;
70725;SDS011;58304;53.104;6.022;2023-04-25T07:59:42;5.18;;;0.93;;
70725;SDS011;58304;53.104;6.022;2023-04-25T08:02:08;5.25;;;1.08;;
70725;SDS011;58304;53.104;6.022;2023-04-25T08:04:33;7.43;;;0.95;;
70725;SDS011;58304;53.104;6.022;2023-04-25T08:06:59;5.68;;;1.38;;
70725;SDS011;58304;53.104;6.022;2023-04-25T08:09:25;7.63;;;1.02;;
70725;SDS011;58304;53.104;6.022;2023-04-25T08:11:51;5.10;;;1.00;;
70725;SDS011;58304;53.104;6.022;2023-04-25T08:14:16;7.68;;;1.20;;
70725;SDS011;58304;53.104;6.022;2023-04-25T08:16:42;7.70;;;1.40;;
70725;SDS011;58304;53.104;6.022;2023-04-25T08:19:08;10.55;;;1.10;;
70725;SDS011;58304;53.104;6.022;2023-04-25T08:21:34;2.72;;;0.77;;
70725;SDS011;58304;53.104;6.022;2023-04-25T08:24:00;5.82;;;0.82;;
70725;SDS011;58304;53.104;6.022;2023-04-25T08:26:25;5.22;;;1.05;;
70725;SDS011;58304;53.104;6.022;2023-04-25T08:28:51;6.75;;;1.20;;
70725;SDS011;58304;53.104;6.022;2023-04-25T08:31:16;4.13;;;0.80;;
70725;SDS011;58304;53.104;6.022;2023-04-25T08:33:42;4.78;;;1.00;;
70725;SDS011;58304;53.104;6.022;2023-04-25T08:36:08;5.88;;;0.85;;
70725;SDS011;58304;53.104;6.022;2023-04-25T08:38:34;5.18;;;1.02;;
70725;SDS011;58304;53.104;6.022;2023-04-25T08:41:00;6.55;;;1.35;;
70725;SDS011;58304;53.104;6.022;2023-04-25T08:43:29;4.82;;;1.00;;
70725;SDS011;58304;53.104;6.022;2023-04-25T08:45:59;10.15;;;1.40;;
70725;SDS011;58304;53.104;6.022;2023-04-25T08:48:26;5.90;;;1.08;;
70725;SDS011;58304;53.104;6.022;2023-04-25T08:50:55;3.60;;;0.80;;
70725;SDS011;58304;53.104;6.022;2023-04-25T08:53:31;6.75;;;1.20;;
70725;SDS011;58304;53.104;6.022;2023-04-25T08:55:58;8.32;;;1.00;;
70725;SDS011;58304;53.104;6.022;2023-04-25T08:58:26;8.80;;;0.90;;
70725;SDS011;58304;53.104;6.022;2023-04-25T09:00:53;7.00;;;1.10;;
70725;SDS011;58304;53.104;6.022;2023-04-25T09:03:19;7.07;;;0.90;;
70725;SDS011;58304;53.104;6.022;2023-04-25T09:05:45;4.15;;;0.80;;
70725;SDS011;58304;53.104;6.022;2023-04-25T09:08:10;5.32;;;1.00;;
70725;SDS011;58304;53.104;6.022;2023-04-25T09:10:37;6.75;;;1.13;;
70725;SDS011;58304;53.104;6.022;2023-04-25T09:13:06;4.65;;;1.08;;
70725;SDS011;58304;53.104;6.022;2023-04-25T09:15:46;5.80;;;1.02;;
70725;SDS011;58304;53.104;6.022;2023-04-25T09:18:13;4.55;;;0.80;;
70725;SDS011;58304;53.104;6.022;2023-04-25T09:20:58;7.53;;;1.00;;
70725;SDS011;58304;53.104;6.022;2023-04-25T09:23:30;2.95;;;0.80;;
70725;SDS011;58304;53.104;6.022;2023-04-25T09:26:06;7.25;;;1.20;;
70725;SDS011;58304;53.104;6.022;2023-04-25T09:28:32;4.78;;;0.95;;
70725;SDS011;58304;53.104;6.022;2023-04-25T09:31:00;4.43;;;1.05;;
70725;SDS011;58304;53.104;6.022;2023-04-25T09:33:30;5.35;;;1.10;;
70725;SDS011;58304;53.104;6.022;2023-04-25T09:36:01;4.97;;;1.00;;
70725;SDS011;58304;53.104;6.022;2023-04-25T09:38:28;4.45;;;1.10;;
70725;SDS011;58304;53.104;6.022;2023-04-25T09:40:58;4.00;;;1.00;;
70725;SDS011;58304;53.104;6.022;2023-04-25T09:43:26;5.53;;;1.00;;
70725;SDS011;58304;53.104;6.022;2023-04-25T09:45:53;2.25;;;0.95;;
70725;SDS011;58304;53.104;6.022;2023-04-25T09:48:24;5.15;;;1.00;;
70725;SDS011;58304;53.104;6.022;2023-04-25T09:53:32;7.03;;;1.00;;
70725;SDS011;58304;53.104;6.022;2023-04-25T09:56:06;3.47;;;0.98;;
70725;SDS011;58304;53.104;6.022;2023-04-25T09:58:35;4.60;;;1.00;;
70725;SDS011;58304;53.104;6.022;2023-04-25T10:01:03;7.32;;;1.10;;
70725;SDS011;58304;53.104;6.022;2023-04-25T10:03:31;6.30;;;1.00;;
70725;SDS011;58304;53.104;6.022;2023-04-25T10:05:59;4.53;;;0.82;;
70725;SDS011;58304;53.104;6.022;2023-04-25T10:08:26;4.07;;;1.00;;
70725;SDS011;58304;53.104;6.022;2023-04-25T10:10:57;5.65;;;1.05;;
70725;SDS011;58304;53.104;6.022;2023-04-25T10:13:28;6.03;;;1.13;;
70725;SDS011;58304;53.104;6.022;2023-04-25T10:15:56;3.83;;;0.88;;
70725;SDS011;58304;53.104;6.022;2023-04-25T10:18:26;5.43;;;0.90;;
70725;SDS011;58304;53.104;6.022;2023-04-25T10:20:54;7.07;;;1.20;;
70725;SDS011;58304;53.104;6.022;2023-04-25T10:23:21;5.47;;;1.02;;
70725;SDS011;58304;53.104;6.022;2023-04-25T10:25:48;5.05;;;1.10;;
70725;SDS011;58304;53.104;6.022;2023-04-25T10:28:16;5.88;;;0.90;;
70725;SDS011;58304;53.104;6.022;2023-04-25T10:30:57;6.95;;;1.17;;
70725;SDS011;58304;53.104;6.022;2023-04-25T10:38:38;4.47;;;0.80;;
70725;SDS011;58304;53.104;6.022;2023-04-25T10:41:05;5.97;;;1.23;;
70725;SDS011;58304;53.104;6.022;2023-04-25T10:43:44;8.40;;;1.10;;
70725;SDS011;58304;53.104;6.022;2023-04-25T10:49:03;4.50;;;0.90;;
70725;SDS011;58304;53.104;6.022;2023-04-25T10:51:32;6.40;;;1.13;;
70725;SDS011;58304;53.104;6.022;2023-04-25T10:54:05;5.32;;;1.08;;
70725;SDS011;58304;53.104;6.022;2023-04-25T10:56:33;4.88;;;0.82;;
70725;SDS011;58304;53.104;6.022;2023-04-25T10:59:08;5.95;;;1.08;;
70725;SDS011;58304;53.104;6.022;2023-04-25T11:01:45;2.38;;;0.70;;
70725;SDS011;58304;53.104;6.022;2023-04-25T11:04:22;5.43;;;0.90;;
70725;SDS011;58304;53.104;6.022;2023-04-25T11:06:58;3.13;;;0.80;;
70725;SDS011;58304;53.104;6.022;2023-04-25T11:09:27;6.50;;;1.20;;
70725;SDS011;58304;53.104;6.022;2023-04-25T11:11:54;5.68;;;1.10;;
70725;SDS011;58304;53.104;6.022;2023-04-25T11:14:20;5.22;;;0.93;;
70725;SDS011;58304;53.104;6.022;2023-04-25T11:16:46;4.90;;;1.00;;
70725;SDS011;58304;53.104;6.022;2023-04-25T11:19:12;5.43;;;1.50;;
70725;SDS011;58304;53.104;6.022;2023-04-25T11:21:38;7.03;;;1.00;;
70725;SDS011;58304;53.104;6.022;2023-04-25T11:24:03;5.82;;;1.10;;
70725;SDS011;58304;53.104;6.022;2023-04-25T11:26:29;5.15;;;1.10;;
70725;SDS011;58304;53.104;6.022;2023-04-25T11:28:59;5.47;;;1.20;;
70725;SDS011;58304;53.104;6.022;2023-04-25T11:31:25;7.50;;;1.08;;
70725;SDS011;58304;53.104;6.022;2023-04-25T11:33:52;8.82;;;1.27;;
70725;SDS011;58304;53.104;6.022;2023-04-25T11:36:19;7.53;;;1.45;;
70725;SDS011;58304;53.104;6.022;2023-04-25T11:38:45;3.95;;;1.00;;
70725;SDS011;58304;53.104;6.022;2023-04-25T11:41:11;4.15;;;0.95;;
70725;SDS011;58304;53.104;6.022;2023-04-25T11:43:36;6.05;;;1.02;;
70725;SDS011;58304;53.104;6.022;2023-04-25T11:46:06;4.72;;;1.20;;
70725;SDS011;58304;53.104;6.022;2023-04-25T11:48:39;4.45;;;0.77;;
70725;SDS011;58304;53.104;6.022;2023-04-25T11:51:05;3.35;;;0.90;;
70725;SDS011;58304;53.104;6.022;2023-04-25T11:53:31;5.93;;;0.98;;
70725;SDS011;58304;53.104;6.022;2023-04-25T11:55:56;4.63;;;0.70;;
70725;SDS011;58304;53.104;6.022;2023-04-25T11:58:22;5.30;;;1.00;;
70725;SDS011;58304;53.104;6.022;2023-04-25T12:00:48;7.78;;;1.10;;
70725;SDS011;58304;53.104;6.022;2023-04-25T12:03:13;5.07;;;1.00;;
70725;SDS011;58304;53.104;6.022;2023-04-25T12:05:39;2.42;;;0.80;;
70725;SDS011;58304;53.104;6.022;2023-04-25T12:08:17;2.75;;;0.80;;
70725;SDS011;58304;53.104;6.022;2023-04-25T12:10:43;4.32;;;1.02;;
70725;SDS011;58304;53.104;6.022;2023-04-25T12:13:17;4.53;;;0.98;;
70725;SDS011;58304;53.104;6.022;2023-04-25T12:15:47;4.60;;;1.50;;
70725;SDS011;58304;53.104;6.022;2023-04-25T12:18:13;8.15;;;1.00;;
70725;SDS011;58304;53.104;6.022;2023-04-25T12:20:38;5.97;;;1.17;;
70725;SDS011;58304;53.104;6.022;2023-04-25T12:23:07;7.07;;;1.10;;
70725;SDS011;58304;53.104;6.022;2023-04-25T12:25:37;4.45;;;0.90;;
70725;SDS011;58304;53.104;6.022;2023-04-25T12:28:17;5.57;;;1.00;;
70725;SDS011;58304;53.104;6.022;2023-04-25T12:33:23;8.45;;;1.10;;
70725;SDS011;58304;53.104;6.022;2023-04-25T12:35:51;4.70;;;0.82;;
70725;SDS011;58304;53.104;6.022;2023-04-25T12:38:30;5.40;;;1.02;;
70725;SDS011;58304;53.104;6.022;2023-04-25T12:40:59;7.78;;;1.10;;
70725;SDS011;58304;53.104;6.022;2023-04-25T12:43:25;4.50;;;0.80;;
70725;SDS011;58304;53.104;6.022;2023-04-25T12:45:51;10.65;;;1.30;;
70725;SDS011;58304;53.104;6.022;2023-04-25T12:48:18;3.85;;;0.80;;
70725;SDS011;58304;53.104;6.022;2023-04-25T12:50:44;4.07;;;0.80;;
70725;SDS011;58304;53.104;6.022;2023-04-25T12:53:12;3.63;;;0.75;;
70725;SDS011;58304;53.104;6.022;2023-04-25T12:55:38;5.70;;;1.00;;
70725;SDS011;58304;53.104;6.022;2023-04-25T12:58:04;4.60;;;0.85;;
70725;SDS011;58304;53.104;6.022;2023-04-25T13:00:30;9.43;;;1.15;;
70725;SDS011;58304;53.104;6.022;2023-04-25T13:02:56;9.02;;;1.27;;
70725;SDS011;58304;53.104;6.022;2023-04-25T13:05:22;8.00;;;1.42;;
70725;SDS011;58304;53.104;6.022;2023-04-25T13:07:47;5.57;;;1.00;;
70725;SDS011;58304;53.104;6.022;2023-04-25T13:10:16;6.05;;;1.15;;
70725;SDS011;58304;53.104;6.022;2023-04-25T13:12:43;5.18;;;1.02;;
70725;SDS011;58304;53.104;6.022;2023-04-25T13:15:09;6.00;;;1.00;;
70725;SDS011;58304;53.104;6.022;2023-04-25T13:17:36;11.98;;;1.15;;
70725;SDS011;58304;53.104;6.022;2023-04-25T13:20:03;4.00;;;1.08;;
70725;SDS011;58304;53.104;6.022;2023-04-25T13:22:34;6.97;;;2.15;;
70725;SDS011;58304;53.104;6.022;2023-04-25T13:25:03;5.53;;;0.80;;
70725;SDS011;58304;53.104;6.022;2023-04-25T13:27:29;9.95;;;1.20;;
70725;SDS011;58304;53.104;6.022;2023-04-25T13:29:57;4.95;;;1.08;;
70725;SDS011;58304;53.104;6.022;2023-04-25T13:32:23;5.38;;;0.98;;
70725;SDS011;58304;53.104;6.022;2023-04-25T13:34:49;6.50;;;1.00;;
70725;SDS011;58304;53.104;6.022;2023-04-25T13:37:15;7.05;;;1.20;;
70725;SDS011;58304;53.104;6.022;2023-04-25T13:39:40;5.95;;;1.10;;
70725;SDS011;58304;53.104;6.022;2023-04-25T13:42:06;6.80;;;1.00;;
70725;SDS011;58304;53.104;6.022;2023-04-25T13:44:31;3.83;;;0.88;;
70725;SDS011;58304;53.104;6.022;2023-04-25T13:46:57;7.95;;;1.30;;
70725;SDS011;58304;53.104;6.022;2023-04-25T13:49:23;7.88;;;1.30;;
70725;SDS011;58304;53.104;6.022;2023-04-25T13:51:48;7.28;;;1.42;;
70725;SDS011;58304;53.104;6.022;2023-04-25T13:54:14;5.78;;;1.00;;
70725;SDS011;58304;53.104;6.022;2023-04-25T13:56:40;5.43;;;1.00;;
70725;SDS011;58304;53.104;6.022;2023-04-25T13:59:07;6.57;;;1.20;;
70725;SDS011;58304;53.104;6.022;2023-04-25T14:01:32;4.20;;;1.02;;
70725;SDS011;58304;53.104;6.022;2023-04-25T14:04:00;7.82;;;0.90;;
70725;SDS011;58304;53.104;6.022;2023-04-25T14:06:26;7.38;;;0.85;;
70725;SDS011;58304;53.104;6.022;2023-04-25T14:08:52;6.03;;;0.93;;
70725;SDS011;58304;53.104;6.022;2023-04-25T14:11:18;4.18;;;0.98;;
70725;SDS011;58304;53.104;6.022;2023-04-25T14:13:44;3.22;;;0.80;;
70725;SDS011;58304;53.104;6.022;2023-04-25T14:16:10;8.30;;;1.13;;
70725;SDS011;58304;53.104;6.022;2023-04-25T14:18:36;7.05;;;1.20;;
70725;SDS011;58304;53.104;6.022;2023-04-25T14:21:02;3.08;;;0.80;;
70725;SDS011;58304;53.104;6.022;2023-04-25T14:23:27;8.15;;;1.00;;
70725;SDS011;58304;53.104;6.022;2023-04-25T14:25:53;4.65;;;1.23;;
70725;SDS011;58304;53.104;6.022;2023-04-25T14:28:19;4.72;;;0.90;;
70725;SDS011;58304;53.104;6.022;2023-04-25T14:30:45;2.65;;;0.85;;
70725;SDS011;58304;53.104;6.022;2023-04-25T14:33:10;2.72;;;0.70;;
70725;SDS011;58304;53.104;6.022;2023-04-25T14:35:36;9.45;;;1.00;;
70725;SDS011;58304;53.104;6.022;2023-04-25T14:38:02;9.02;;;1.30;;
70725;SDS011;58304;53.104;6.022;2023-04-25T14:40:28;5.03;;;1.20;;
70725;SDS011;58304;53.104;6.022;2023-04-25T14:42:54;5.85;;;0.95;;
70725;SDS011;58304;53.104;6.022;2023-04-25T14:45:19;7.63;;;1.20;;
70725;SDS011;58304;53.104;6.022;2023-04-25T14:47:45;8.30;;;1.40;;
70725;SDS011;58304;53.104;6.022;2023-04-25T14:50:10;8.45;;;1.20;;
70725;SDS011;58304;53.104;6.022;2023-04-25T14:52:36;7.97;;;1.27;;
70725;SDS011;58304;53.104;6.022;2023-04-25T14:55:02;8.32;;;1.15;;
70725;SDS011;58304;53.104;6.022;2023-04-25T14:57:34;5.20;;;0.90;;
70725;SDS011;58304;53.104;6.022;2023-04-25T15:00:00;4.53;;;1.10;;
70725;SDS011;58304;53.104;6.022;2023-04-25T15:02:27;6.57;;;1.10;;
70725;SDS011;58304;53.104;6.022;2023-04-25T15:04:53;5.25;;;0.90;;
70725;SDS011;58304;53.104;6.022;2023-04-25T15:07:20;3.13;;;0.80;;
70725;SDS011;58304;53.104;6.022;2023-04-25T15:09:47;5.18;;;1.10;;
70725;SDS011;58304;53.104;6.022;2023-04-25T15:12:14;5.30;;;1.20;;
70725;SDS011;58304;53.104;6.022;2023-04-25T15:14:40;6.88;;;1.10;;
70725;SDS011;58304;53.104;6.022;2023-04-25T15:17:05;7.70;;;1.10;;
70725;SDS011;58304;53.104;6.022;2023-04-25T15:19:31;6.28;;;1.10;;
70725;SDS011;58304;53.104;6.022;2023-04-25T15:21:57;5.13;;;1.10;;
70725;SDS011;58304;53.104;6.022;2023-04-25T15:24:26;9.05;;;1.02;;
70725;SDS011;58304;53.104;6.022;2023-04-25T15:26:51;6.88;;;1.05;;
70725;SDS011;58304;53.104;6.022;2023-04-25T15:29:17;4.68;;;0.90;;
70725;SDS011;58304;53.104;6.022;2023-04-25T15:31:43;5.13;;;0.90;;
70725;SDS011;58304;53.104;6.022;2023-04-25T15:34:08;4.70;;;0.82;;
70725;SDS011;58304;53.104;6.022;2023-04-25T15:36:34;5.65;;;0.93;;
70725;SDS011;58304;53.104;6.022;2023-04-25T15:38:59;4.13;;;0.85;;
70725;SDS011;58304;53.104;6.022;2023-04-25T15:41:25;4.43;;;0.70;;
70725;SDS011;58304;53.104;6.022;2023-04-25T15:43:51;2.20;;;0.70;;
70725;SDS011;58304;53.104;6.022;2023-04-25T15:46:17;3.70;;;0.73;;
70725;SDS011;58304;53.104;6.022;2023-04-25T15:48:43;6.07;;;0.80;;
70725;SDS011;58304;53.104;6.022;2023-04-25T15:51:08;8.02;;;1.00;;
70725;SDS011;58304;53.104;6.022;2023-04-25T15:53:34;3.97;;;0.80;;
70725;SDS011;58304;53.104;6.022;2023-04-25T15:56:00;5.80;;;0.90;;
70725;SDS011;58304;53.104;6.022;2023-04-25T15:58:26;4.30;;;0.70;;
70725;SDS011;58304;53.104;6.022;2023-04-25T16:00:51;5.55;;;0.82;;
70725;SDS011;58304;53.104;6.022;2023-04-25T16:03:19;5.75;;;0.80;;
70725;SDS011;58304;53.104;6.022;2023-04-25T16:05:45;4.18;;;1.00;;
70725;SDS011;58304;53.104;6.022;2023-04-25T16:08:12;5.22;;;0.75;;
70725;SDS011;58304;53.104;6.022;2023-04-25T16:10:37;3.97;;;0.80;;
70725;SDS011;58304;53.104;6.022;2023-04-25T16:13:03;4.78;;;0.90;;
70725;SDS011;58304;53.104;6.022;2023-04-25T16:15:28;6.20;;;0.90;;
70725;SDS011;58304;53.104;6.022;2023-04-25T16:17:54;8.57;;;1.67;;
70725;SDS011;58304;53.104;6.022;2023-04-25T16:20:20;7.15;;;1.23;;
70725;SDS011;58304;53.104;6.022;2023-04-25T16:22:46;6.72;;;1.00;;
70725;SDS011;58304;53.104;6.022;2023-04-25T16:25:12;9.60;;;0.90;;
70725;SDS011;58304;53.104;6.022;2023-04-25T16:27:37;5.55;;;1.10;;
70725;SDS011;58304;53.104;6.022;2023-04-25T16:30:04;5.68;;;0.90;;
70725;SDS011;58304;53.104;6.022;2023-04-25T16:32:32;4.15;;;0.70;;
70725;SDS011;58304;53.104;6.022;2023-04-25T16:34:58;4.40;;;0.90;;
70725;SDS011;58304;53.104;6.022;2023-04-25T16:37:23;9.38;;;1.08;;
70725;SDS011;58304;53.104;6.022;2023-04-25T16:39:49;5.50;;;0.95;;
70725;SDS011;58304;53.104;6.022;2023-04-25T16:42:15;3.45;;;1.00;;
70725;SDS011;58304;53.104;6.022;2023-04-25T16:44:40;5.80;;;0.98;;
70725;SDS011;58304;53.104;6.022;2023-04-25T16:47:06;5.18;;;0.90;;
70725;SDS011;58304;53.104;6.022;2023-04-25T16:49:32;4.22;;;0.90;;
70725;SDS011;58304;53.104;6.022;2023-04-25T16:51:57;8.65;;;1.20;;
70725;SDS011;58304;53.104;6.022;2023-04-25T16:54:23;3.45;;;0.80;;
70725;SDS011;58304;53.104;6.022;2023-04-25T16:56:49;6.13;;;0.80;;
70725;SDS011;58304;53.104;6.022;2023-04-25T16:59:16;6.47;;;1.10;;
70725;SDS011;58304;53.104;6.022;2023-04-25T17:01:42;8.90;;;1.10;;
70725;SDS011;58304;53.104;6.022;2023-04-25T17:04:07;9.15;;;1.35;;
70725;SDS011;58304;53.104;6.022;2023-04-25T17:06:33;8.40;;;1.17;;
70725;SDS011;58304;53.104;6.022;2023-04-25T17:08:59;3.40;;;1.05;;